Time;durP1;ratioP1;P1;durP2;ratioP2;P2;SDS_P1;SDS_P2;PMS_P1;PMS_P2;Temp;Humidity;BMP_temperature;BMP_pressure;BME280_temperature;BME280_humidity;BME280_pressure;Samples;Min_cycle;Max_cycle;Signal;HPM_P1;HPM_P2
2023/05/10 00:01:54;;;;;;;41.60;18.13;;;;;;;11.73;100.00;100832.81;5092225;28;20027;-76
2023/05/10 00:04:22;;;;;;;50.47;17.40;;;;;;;11.69;100.00;100832.06;5078456;28;20024;-75
2023/05/10 00:06:48;;;;;;;52.47;18.55;;;;;;;11.66;100.00;100833.91;5092807;28;20095;-76
2023/05/10 00:09:13;;;;;;;51.17;18.85;;;;;;;11.68;100.00;100834.72;5091865;28;20103;-75
2023/05/10 00:11:39;;;;;;;57.03;19.42;;;;;;;11.65;100.00;100837.41;5092795;28;20028;-76
2023/05/10 00:14:07;;;;;;;50.03;19.73;;;;;;;11.60;100.00;100834.06;5080145;28;20052;-75
2023/05/10 00:16:32;;;;;;;46.83;19.67;;;;;;;11.56;100.00;100835.06;5071574;28;20028;-75
2023/05/10 00:18:58;;;;;;;64.85;20.75;;;;;;;11.52;100.00;100829.06;5072536;28;20493;-75
2023/05/10 00:21:23;;;;;;;50.88;19.17;;;;;;;11.47;100.00;100829.19;5072664;28;20037;-75
2023/05/10 00:23:48;;;;;;;63.55;21.08;;;;;;;11.46;100.00;100831.84;5071324;28;20130;-75
2023/05/10 00:26:13;;;;;;;60.88;20.75;;;;;;;11.41;100.00;100829.38;5072470;28;20490;-75
2023/05/10 00:28:39;;;;;;;57.05;22.38;;;;;;;11.36;100.00;100833.00;5072253;28;20024;-76
2023/05/10 00:31:04;;;;;;;54.13;22.13;;;;;;;11.35;100.00;100826.91;5071810;28;20357;-75
2023/05/10 00:33:30;;;;;;;60.60;22.48;;;;;;;11.30;100.00;100828.78;5058446;28;20533;-75
2023/05/10 00:35:55;;;;;;;62.42;23.58;;;;;;;11.31;100.00;100829.63;5072403;28;20449;-75
2023/05/10 00:38:21;;;;;;;65.72;24.17;;;;;;;11.33;100.00;100833.91;5071585;28;20023;-75
2023/05/10 00:40:46;;;;;;;63.97;25.73;;;;;;;11.32;100.00;100829.59;5072325;28;20041;-75
2023/05/10 00:43:11;;;;;;;67.22;23.77;;;;;;;11.37;100.00;100837.31;5072021;28;20052;-75
2023/05/10 00:45:38;;;;;;;69.88;25.30;;;;;;;11.39;100.00;100833.75;5071440;28;20032;-76
2023/05/10 00:48:04;;;;;;;86.65;27.73;;;;;;;11.44;100.00;100837.13;5072206;28;20474;-75
2023/05/10 00:50:32;;;;;;;82.63;28.02;;;;;;;11.49;100.00;100832.59;5072349;28;20021;-75
2023/05/10 00:52:58;;;;;;;88.85;30.60;;;;;;;11.53;100.00;100833.38;5071306;28;20032;-75
2023/05/10 00:55:24;;;;;;;102.53;32.83;;;;;;;11.54;100.00;100821.19;5072270;28;20032;-75
2023/05/10 00:57:49;;;;;;;107.22;32.85;;;;;;;11.56;100.00;100822.84;5089917;28;20027;-75
2023/05/10 01:00:18;;;;;;;106.88;33.53;;;;;;;11.60;100.00;100829.69;5092286;28;20043;-75
2023/05/10 01:02:45;;;;;;;107.97;37.33;;;;;;;11.59;100.00;100824.53;5092029;28;20063;-75
2023/05/10 01:05:11;;;;;;;128.38;37.70;;;;;;;11.61;100.00;100823.59;5091572;28;20032;-75
2023/05/10 01:07:36;;;;;;;159.68;38.53;;;;;;;11.64;100.00;100827.84;5092072;28;20084;-75
2023/05/10 01:10:02;;;;;;;142.48;39.20;;;;;;;11.65;100.00;100819.13;5092202;28;20023;-75
2023/05/10 01:12:27;;;;;;;130.27;38.70;;;;;;;11.67;100.00;100817.31;5095457;28;20158;-75
2023/05/10 01:14:54;;;;;;;151.88;41.40;;;;;;;11.65;100.00;100819.13;5095517;28;20423;-75
2023/05/10 01:17:20;;;;;;;152.27;43.75;;;;;;;11.65;100.00;100814.78;5096185;28;20106;-75
2023/05/10 01:19:45;;;;;;;148.40;42.75;;;;;;;11.70;100.00;100809.41;5094965;28;20031;-75
2023/05/10 01:22:28;;;;;;;204.35;43.65;;;;;;;11.72;100.00;100825.91;5086565;28;20387;-75
2023/05/10 01:25:15;;;;;;;156.27;43.37;;;;;;;11.75;100.00;100824.97;5093020;28;20048;-75
2023/05/10 01:28:07;;;;;;;148.90;40.92;;;;;;;11.73;100.00;100818.00;5095116;28;20376;-75
2023/05/10 01:31:06;;;;;;;173.43;45.15;;;;;;;11.70;100.00;100818.09;5095901;28;20043;-75
2023/05/10 01:33:47;;;;;;;172.20;43.60;;;;;;;11.69;100.00;100816.38;5080672;28;20020;-75
2023/05/10 01:36:39;;;;;;;159.43;43.83;;;;;;;11.70;100.00;100814.63;5095718;28;20471;-75
2023/05/10 01:39:20;;;;;;;168.65;43.50;;;;;;;11.70;100.00;100823.31;5095758;28;20024;-75
2023/05/10 01:41:54;;;;;;;183.57;44.15;;;;;;;11.75;100.00;100823.19;5080100;28;20035;-75
2023/05/10 01:44:35;;;;;;;247.20;48.25;;;;;;;11.74;100.00;100824.09;5076100;28;20490;-75
2023/05/10 01:47:13;;;;;;;154.32;43.78;;;;;;;11.79;100.00;100826.56;5092364;28;20481;-75
2023/05/10 01:49:49;;;;;;;173.13;46.25;;;;;;;11.81;100.00;100816.94;5095137;28;20115;-75
2023/05/10 01:52:19;;;;;;;214.38;45.55;;;;;;;11.78;100.00;100820.50;5095320;28;20035;-75
2023/05/10 01:54:59;;;;;;;164.38;45.03;;;;;;;11.75;100.00;100822.34;5094176;28;20107;-75
2023/05/10 01:57:27;;;;;;;169.30;45.72;;;;;;;11.71;100.00;100825.03;5095262;28;20058;-75
2023/05/10 01:59:54;;;;;;;167.95;43.88;;;;;;;11.75;100.00;100830.19;5095031;28;20035;-75
2023/05/10 02:02:21;;;;;;;195.15;48.22;;;;;;;11.75;100.00;100825.81;5094613;28;20028;-75
2023/05/10 02:04:49;;;;;;;176.88;48.13;;;;;;;11.77;100.00;100828.38;5094744;28;20479;-75
2023/05/10 02:07:15;;;;;;;224.85;49.65;;;;;;;11.75;100.00;100819.75;5094954;28;20509;-75
2023/05/10 02:09:47;;;;;;;220.85;51.40;;;;;;;11.77;100.00;100834.47;5093722;28;20517;-75
2023/05/10 02:12:13;;;;;;;181.52;51.22;;;;;;;11.76;100.00;100830.13;5095126;28;20028;-75
2023/05/10 02:14:41;;;;;;;220.23;51.92;;;;;;;11.74;100.00;100845.00;5094573;28;20054;-75
2023/05/10 02:17:08;;;;;;;223.48;58.17;;;;;;;11.70;100.00;100838.13;5094156;28;20074;-75
2023/05/10 02:19:36;;;;;;;238.15;59.08;;;;;;;11.71;100.00;100842.47;5094809;28;20074;-75
2023/05/10 02:22:03;;;;;;;245.45;62.90;;;;;;;11.69;100.00;100847.72;5094411;28;20487;-75
2023/05/10 02:24:29;;;;;;;255.85;62.50;;;;;;;11.72;100.00;100846.78;5093595;28;20048;-75
2023/05/10 02:26:55;;;;;;;257.40;65.35;;;;;;;11.68;100.00;100851.25;5094263;28;20533;-75
2023/05/10 02:29:23;;;;;;;284.23;64.45;;;;;;;11.69;100.00;100852.94;5080168;28;20024;-75
2023/05/10 02:31:52;;;;;;;223.07;59.67;;;;;;;11.66;100.00;100846.97;5074251;28;20024;-75
2023/05/10 02:34:19;;;;;;;261.48;62.47;;;;;;;11.67;100.00;100851.28;5073968;28;20048;-75
2023/05/10 02:36:44;;;;;;;235.43;63.85;;;;;;;11.65;100.00;100843.50;5073162;28;20103;-75
2023/05/10 02:39:13;;;;;;;261.25;63.33;;;;;;;11.63;100.00;100853.13;5074216;28;20109;-75
2023/05/10 02:41:40;;;;;;;243.38;62.88;;;;;;;11.63;100.00;100854.88;5073859;28;20029;-75
2023/05/10 02:44:07;;;;;;;256.25;63.30;;;;;;;11.61;100.00;100859.31;5073216;28;20029;-75
2023/05/10 02:46:33;;;;;;;202.82;58.15;;;;;;;11.59;100.00;100858.47;5074212;28;20025;-75
2023/05/10 02:48:58;;;;;;;228.80;57.50;;;;;;;11.47;100.00;100857.88;5073734;28;20499;-75
2023/05/10 02:51:31;;;;;;;195.38;56.35;;;;;;;11.43;100.00;100848.44;5073055;28;20107;-75
2023/05/10 02:54:01;;;;;;;180.95;55.10;;;;;;;11.38;100.00;100852.94;5073816;28;20066;-75
2023/05/10 02:56:34;;;;;;;209.00;56.22;;;;;;;11.30;100.00;100848.81;5074280;28;20047;-75
2023/05/10 02:58:59;;;;;;;169.13;53.30;;;;;;;11.35;100.00;100857.38;5073018;28;20025;-75
2023/05/10 03:01:24;;;;;;;198.93;53.88;;;;;;;11.40;100.00;100860.72;5073507;28;20028;-75
2023/05/10 03:03:50;;;;;;;183.98;55.42;;;;;;;11.43;100.00;100858.88;5073521;28;20066;-74
2023/05/10 03:06:16;;;;;;;219.88;56.90;;;;;;;11.44;100.00;100849.28;5072685;28;20024;-75
2023/05/10 03:08:42;;;;;;;205.88;55.03;;;;;;;11.46;100.00;100856.19;5073574;28;20020;-75
2023/05/10 03:11:23;;;;;;;221.00;54.95;;;;;;;11.51;100.00;100858.69;5073464;28;20361;-75
2023/05/10 03:14:10;;;;;;;205.98;55.05;;;;;;;11.57;100.00;100855.03;5072515;28;20068;-75
2023/05/10 03:16:49;;;;;;;171.30;52.00;;;;;;;11.58;100.00;100864.59;5073647;28;20024;-75
2023/05/10 03:19:32;;;;;;;177.85;51.63;;;;;;;11.59;100.00;100861.94;5072783;28;20112;-75
2023/05/10 03:22:03;;;;;;;163.57;49.05;;;;;;;11.61;100.00;100862.75;5073238;28;20498;-75
2023/05/10 03:24:30;;;;;;;168.00;49.97;;;;;;;11.58;100.00;100859.38;5073210;28;20109;-75
2023/05/10 03:26:59;;;;;;;161.55;48.72;;;;;;;11.63;100.00;100862.72;5072062;28;20056;-75
2023/05/10 03:29:26;;;;;;;156.68;47.88;;;;;;;11.63;100.00;100868.78;5073345;28;20020;-75
2023/05/10 03:31:52;;;;;;;190.80;48.45;;;;;;;11.63;100.00;100863.56;5073083;28;20031;-75
2023/05/10 03:34:23;;;;;;;173.00;48.03;;;;;;;11.67;100.00;100873.03;5072135;28;20024;-74
2023/05/10 03:36:48;;;;;;;162.70;46.45;;;;;;;11.64;100.00;100867.91;5072622;28;20101;-75
2023/05/10 03:39:13;;;;;;;149.05;46.42;;;;;;;11.65;100.00;100877.44;5073220;28;20464;-75
2023/05/10 03:41:39;;;;;;;150.43;44.38;;;;;;;11.65;100.00;100871.38;5072138;28;20017;-75
2023/05/10 03:44:04;;;;;;;155.68;46.30;;;;;;;11.63;100.00;100871.38;5069492;28;20020;-75
2023/05/10 03:46:29;;;;;;;148.90;44.58;;;;;;;11.64;100.00;100886.19;5072900;28;20025;-75
2023/05/10 03:48:55;;;;;;;152.15;44.97;;;;;;;11.64;100.00;100877.47;5071822;28;20059;-75
2023/05/10 03:51:20;;;;;;;153.80;45.75;;;;;;;11.62;100.00;100877.53;5072785;28;20043;-75
2023/05/10 03:53:46;;;;;;;142.68;45.38;;;;;;;11.60;100.00;100881.06;5071901;28;20541;-75
2023/05/10 03:56:11;;;;;;;146.73;45.78;;;;;;;11.55;100.00;100877.75;5072940;28;20066;-75
2023/05/10 03:58:36;;;;;;;159.10;45.60;;;;;;;11.58;100.00;100885.50;5072809;28;20055;-75
2023/05/10 04:01:02;;;;;;;168.07;46.22;;;;;;;11.58;100.00;100888.97;5071859;28;20016;-75
2023/05/10 04:03:27;;;;;;;158.30;45.92;;;;;;;11.58;100.00;100885.50;5072749;28;20380;-75
2023/05/10 04:06:02;;;;;;;219.35;49.42;;;;;;;11.60;100.00;100887.13;5072151;28;20060;-75
2023/05/10 04:08:28;;;;;;;166.43;45.38;;;;;;;11.63;100.00;100891.44;5071851;28;20388;-74
2023/05/10 04:10:54;;;;;;;168.32;47.63;;;;;;;11.63;100.00;100897.50;5072575;28;20024;-75
2023/05/10 04:13:19;;;;;;;178.65;47.75;;;;;;;11.61;100.00;100899.31;5072575;28;20070;-75
2023/05/10 04:15:44;;;;;;;218.70;57.05;;;;;;;11.57;100.00;100891.59;5071734;28;20090;-74
2023/05/10 04:18:10;;;;;;;221.85;59.05;;;;;;;11.53;100.00;100903.03;5072267;28;20065;-75
2023/05/10 04:20:35;;;;;;;249.02;62.47;;;;;;;11.51;100.00;100899.59;5072513;28;20056;-74
2023/05/10 04:23:01;;;;;;;247.15;59.50;;;;;;;11.53;100.00;100897.81;5071696;28;20048;-75
2023/05/10 04:25:26;;;;;;;245.10;60.65;;;;;;;11.53;100.00;100901.25;5072143;28;20100;-74
2023/05/10 04:27:51;;;;;;;240.77;60.53;;;;;;;11.48;100.00;100890.09;5072006;28;20025;-75
2023/05/10 04:30:20;;;;;;;250.65;60.97;;;;;;;11.48;100.00;100895.31;5072023;28;20063;-75
2023/05/10 04:32:45;;;;;;;209.48;58.13;;;;;;;11.38;100.00;100879.03;5072198;28;20020;-75
2023/05/10 04:35:10;;;;;;;233.60;59.50;;;;;;;11.43;100.00;100903.25;5072111;28;20074;-75
2023/05/10 04:37:36;;;;;;;197.38;54.40;;;;;;;11.39;100.00;100898.16;5071790;28;20041;-75
2023/05/10 04:40:03;;;;;;;193.30;52.33;;;;;;;11.33;100.00;100890.50;5072316;28;20021;-75
2023/05/10 04:42:28;;;;;;;182.02;51.03;;;;;;;11.30;100.00;100896.63;5071932;28;20529;-75
2023/05/10 04:44:53;;;;;;;159.52;48.38;;;;;;;11.28;100.00;100898.44;5060139;28;20029;-75
2023/05/10 04:47:19;;;;;;;140.57;44.55;;;;;;;11.29;100.00;100904.53;5073326;28;20024;-75
2023/05/10 04:49:44;;;;;;;139.15;43.15;;;;;;;11.30;100.00;100904.47;5076094;28;20031;-75
2023/05/10 04:52:09;;;;;;;146.20;42.40;;;;;;;11.32;100.00;100907.91;5075264;28;20067;-75
2023/05/10 04:54:35;;;;;;;140.63;44.20;;;;;;;11.32;100.00;100912.28;5076293;28;20396;-75
2023/05/10 04:57:00;;;;;;;136.70;40.55;;;;;;;11.27;100.00;100908.91;5075266;28;20025;-75
2023/05/10 04:59:25;;;;;;;133.20;40.88;;;;;;;11.26;100.00;100910.66;5076213;28;20460;-75
2023/05/10 05:01:50;;;;;;;133.38;40.00;;;;;;;11.25;100.00;100903.75;5075942;28;20051;-75
2023/05/10 05:04:18;;;;;;;128.05;40.42;;;;;;;11.23;100.00;100915.97;5075231;28;20082;-75
2023/05/10 05:06:44;;;;;;;121.03;39.15;;;;;;;11.21;100.00;100913.38;5075845;28;20103;-75
2023/05/10 05:09:10;;;;;;;116.43;38.97;;;;;;;11.25;100.00;100916.78;5075840;28;20112;-75
2023/05/10 05:11:35;;;;;;;117.82;38.10;;;;;;;11.27;100.00;100912.38;5075255;28;20052;-75
2023/05/10 05:14:00;;;;;;;120.43;38.45;;;;;;;11.30;100.00;100914.06;5075621;28;20032;-75
2023/05/10 05:16:30;;;;;;;130.63;39.05;;;;;;;11.35;100.00;100910.44;5075569;28;20066;-75
2023/05/10 05:18:56;;;;;;;128.20;40.45;;;;;;;11.37;100.00;100923.44;5074650;28;20024;-75
2023/05/10 05:21:22;;;;;;;121.88;41.42;;;;;;;11.42;100.00;100927.66;5075734;28;20012;-75
2023/05/10 05:23:47;;;;;;;120.10;39.38;;;;;;;11.35;100.00;100918.28;5075463;28;20044;-75
2023/05/10 05:26:12;;;;;;;110.35;38.45;;;;;;;11.27;100.00;100928.03;5074925;28;20415;-75
2023/05/10 05:28:38;;;;;;;105.18;37.65;;;;;;;11.25;100.00;100929.84;5075522;28;20039;-75
2023/05/10 05:31:07;;;;;;;113.35;37.75;;;;;;;11.28;100.00;100923.66;5076041;28;20402;-75
2023/05/10 05:33:33;;;;;;;108.93;37.33;;;;;;;11.34;100.00;100940.03;5074823;28;20107;-75
2023/05/10 05:36:01;;;;;;;115.85;39.50;;;;;;;11.40;100.00;100939.88;5075469;28;20103;-75
2023/05/10 05:38:26;;;;;;;113.95;39.20;;;;;;;11.52;100.00;100935.25;5075403;28;20052;-75
2023/05/10 05:40:51;;;;;;;115.95;41.65;;;;;;;11.54;100.00;100933.44;5074828;28;20481;-75
2023/05/10 05:43:17;;;;;;;122.63;39.88;;;;;;;11.57;100.00;100943.81;5075034;28;20028;-75
2023/05/10 05:45:44;;;;;;;120.25;40.65;;;;;;;11.60;100.00;100943.72;5074652;28;20032;-75
2023/05/10 05:48:09;;;;;;;111.43;39.85;;;;;;;11.61;100.00;100937.63;5074783;28;20152;-75
2023/05/10 05:50:34;;;;;;;118.40;40.25;;;;;;;11.70;100.00;100942.59;5075021;28;20109;-75
2023/05/10 05:52:59;;;;;;;110.22;38.80;;;;;;;11.78;100.00;100943.25;5074985;28;20020;-75
2023/05/10 05:55:25;;;;;;;102.70;37.75;;;;;;;11.77;100.00;100944.16;5074578;28;20375;-75
2023/05/10 05:57:51;;;;;;;95.35;36.80;;;;;;;11.80;100.00;100944.06;5074502;28;20017;-75
2023/05/10 06:00:17;;;;;;;97.28;36.67;;;;;;;11.90;100.00;100942.97;5074230;28;20035;-75
2023/05/10 06:02:42;;;;;;;99.93;37.35;;;;;;;11.87;100.00;100950.88;5074507;28;20094;-75
2023/05/10 06:05:10;;;;;;;102.90;36.42;;;;;;;11.92;100.00;100955.97;5075208;28;20056;-75
2023/05/10 06:07:36;;;;;;;90.07;35.38;;;;;;;11.88;100.00;100959.56;5072189;28;20043;-75
2023/05/10 06:10:01;;;;;;;86.35;35.90;;;;;;;11.82;100.00;100960.56;5062899;28;20013;-75
2023/05/10 06:12:26;;;;;;;80.82;34.67;;;;;;;11.88;100.00;100954.34;5074693;28;20464;-75
2023/05/10 06:14:51;;;;;;;82.80;36.47;;;;;;;11.88;100.00;100962.19;5073814;28;20028;-75
2023/05/10 06:17:17;;;;;;;88.78;35.40;;;;;;;11.91;100.00;100968.19;5074562;28;20025;-75
2023/05/10 06:19:55;;;;;;;82.40;35.33;;;;;;;11.92;100.00;100967.28;5074256;28;20017;-75
2023/05/10 06:22:22;;;;;;;89.25;35.63;;;;;;;12.05;100.00;100965.19;5073947;28;20029;-75
2023/05/10 06:24:47;;;;;;;85.85;36.30;;;;;;;12.19;100.00;100968.25;5073791;28;20500;-75
2023/05/10 06:27:13;;;;;;;78.88;35.42;;;;;;;12.30;100.00;100981.06;5074585;28;20031;-75
2023/05/10 06:29:38;;;;;;;83.93;35.30;;;;;;;12.26;100.00;100968.97;5073340;28;20392;-75
2023/05/10 06:32:07;;;;;;;77.80;34.88;;;;;;;12.19;100.00;100972.63;5074729;28;20082;-75
2023/05/10 06:34:32;;;;;;;74.35;34.17;;;;;;;12.14;100.00;100972.78;5074434;28;20120;-75
2023/05/10 06:36:57;;;;;;;71.80;34.92;;;;;;;12.23;100.00;100982.13;5073004;28;20107;-75
2023/05/10 06:39:23;;;;;;;73.43;34.35;;;;;;;12.29;100.00;100991.53;5074280;28;20060;-75
2023/05/10 06:41:48;;;;;;;69.32;34.55;;;;;;;12.24;100.00;100976.00;5073893;28;20039;-75
2023/05/10 06:44:13;;;;;;;64.28;34.88;;;;;;;12.29;100.00;100983.69;5072815;28;20017;-75
2023/05/10 06:46:39;;;;;;;56.22;32.80;;;;;;;12.39;100.00;100990.38;5074004;28;20035;-75
2023/05/10 06:49:04;;;;;;;70.15;34.13;;;;;;;12.52;100.00;100983.03;5073850;28;20081;-75
2023/05/10 06:51:32;;;;;;;57.80;33.05;;;;;;;12.50;100.00;100990.09;5073374;28;20033;-75
2023/05/10 06:53:57;;;;;;;66.40;33.85;;;;;;;12.59;100.00;100995.06;5073418;28;20472;-75
2023/05/10 06:56:23;;;;;;;59.65;32.85;;;;;;;12.61;100.00;100991.47;5073782;28;20032;-75
2023/05/10 06:58:51;;;;;;;60.53;32.05;;;;;;;12.61;100.00;100990.63;5072978;28;20027;-75
2023/05/10 07:01:16;;;;;;;65.18;33.33;;;;;;;12.57;100.00;100991.63;5060126;28;20020;-75
2023/05/10 07:03:41;;;;;;;59.55;31.85;;;;;;;12.50;100.00;101003.16;5072515;28;20020;-75
2023/05/10 07:06:07;;;;;;;62.30;32.45;;;;;;;12.49;100.00;101001.44;5073765;28;20055;-75
2023/05/10 07:08:33;;;;;;;56.03;30.08;;;;;;;12.48;100.00;101007.56;5072778;28;20107;-75
2023/05/10 07:11:06;;;;;;;53.35;28.58;;;;;;;12.48;100.00;101012.78;5072345;28;20468;-75
2023/05/10 07:13:32;;;;;;;55.22;28.20;;;;;;;12.44;100.00;101012.03;5073761;28;20025;-75
2023/05/10 07:15:58;;;;;;;55.13;28.75;;;;;;;12.45;100.00;101020.72;5073267;28;20032;-75
2023/05/10 07:18:24;;;;;;;52.92;27.65;;;;;;;12.43;100.00;101012.09;5072881;28;20060;-75
2023/05/10 07:20:49;;;;;;;57.10;28.42;;;;;;;12.44;100.00;101013.78;5073081;28;20521;-75
2023/05/10 07:23:15;;;;;;;46.92;25.75;;;;;;;12.38;100.00;101014.81;5073056;28;20051;-75
2023/05/10 07:25:40;;;;;;;45.28;23.48;;;;;;;12.36;100.00;101027.06;5072337;28;20032;-75
2023/05/10 07:28:05;;;;;;;41.97;23.20;;;;;;;12.29;100.00;101017.69;5073221;28;20034;-75
2023/05/10 07:30:31;;;;;;;46.70;24.65;;;;;;;12.37;100.00;101029.66;5073390;28;20033;-75
2023/05/10 07:32:56;;;;;;;42.83;21.33;;;;;;;12.30;100.00;101030.72;5072023;28;20044;-75
2023/05/10 07:35:21;;;;;;;44.72;23.30;;;;;;;12.32;100.00;101036.75;5073088;28;20027;-75
2023/05/10 07:37:46;;;;;;;38.97;21.90;;;;;;;12.36;100.00;101032.28;5072932;28;20390;-75
2023/05/10 07:40:12;;;;;;;38.35;21.65;;;;;;;12.43;100.00;101040.84;5072398;28;20025;-75
2023/05/10 07:42:38;;;;;;;36.17;20.70;;;;;;;12.50;100.00;101027.53;5072853;28;20446;-75
2023/05/10 07:45:03;;;;;;;31.95;18.02;;;;;;;12.54;100.00;101036.16;5065798;28;20450;-75
2023/05/10 07:47:29;;;;;;;30.85;17.15;;;;;;;12.57;100.00;101036.94;5072218;28;20059;-75
2023/05/10 07:49:54;;;;;;;31.30;16.92;;;;;;;12.57;100.00;101031.69;5072620;28;20102;-75
2023/05/10 07:52:19;;;;;;;24.92;14.68;;;;;;;12.55;100.00;101038.72;5072702;28;20033;-75
2023/05/10 07:54:45;;;;;;;28.55;15.82;;;;;;;12.54;100.00;101042.25;5072119;28;20066;-75
2023/05/10 07:57:10;;;;;;;25.58;15.20;;;;;;;12.47;100.00;101045.09;5072540;28;20111;-75
2023/05/10 07:59:35;;;;;;;22.27;14.45;;;;;;;12.50;100.00;101050.22;5073077;28;20459;-75
2023/05/10 08:02:00;;;;;;;25.13;15.25;;;;;;;12.41;100.00;101051.34;5072068;28;20021;-74
2023/05/10 08:04:26;;;;;;;22.70;14.60;;;;;;;12.41;100.00;101061.78;5072429;28;20060;-75
2023/05/10 08:06:51;;;;;;;22.02;13.68;;;;;;;12.41;100.00;101060.03;5071945;28;20036;-75
2023/05/10 08:09:17;;;;;;;23.90;14.57;;;;;;;12.48;100.00;101055.47;5072419;28;20058;-75
2023/05/10 08:11:42;;;;;;;22.17;13.10;;;;;;;12.57;100.00;101059.63;5072372;28;20029;-75
2023/05/10 08:14:08;;;;;;;24.45;14.27;;;;;;;12.68;100.00;101065.38;5071799;28;20093;-75
2023/05/10 08:16:34;;;;;;;20.98;13.68;;;;;;;12.69;100.00;101072.34;5072653;28;20033;-75
2023/05/10 08:18:59;;;;;;;23.23;14.18;;;;;;;12.75;100.00;101072.19;5072454;28;20105;-75
2023/05/10 08:21:25;;;;;;;22.90;14.93;;;;;;;12.94;100.00;101077.72;5071799;28;20544;-75
2023/05/10 08:23:51;;;;;;;20.17;15.35;;;;;;;13.07;100.00;101083.44;5071947;28;20048;-75
2023/05/10 08:26:21;;;;;;;19.15;13.18;;;;;;;13.03;100.00;101087.06;5072311;28;20032;-75
2023/05/10 08:28:46;;;;;;;18.58;13.02;;;;;;;13.07;100.00;101079.06;5071734;28;20023;-75
2023/05/10 08:31:12;;;;;;;19.15;13.10;;;;;;;13.30;100.00;101093.25;5072263;28;20037;-75
2023/05/10 08:33:37;;;;;;;20.75;13.30;;;;;;;13.52;100.00;101082.97;5072616;28;20040;-75
2023/05/10 08:36:02;;;;;;;19.70;11.52;;;;;;;13.73;100.00;101092.75;5071733;28;20024;-75
2023/05/10 08:38:28;;;;;;;17.83;11.45;;;;;;;13.79;100.00;101079.44;5072108;28;20024;-75
2023/05/10 08:40:58;;;;;;;19.90;12.35;;;;;;;13.96;100.00;101080.63;5071998;28;20039;-75
2023/05/10 08:43:28;;;;;;;19.05;11.90;;;;;;;13.89;100.00;101082.63;5071682;28;20032;-75
2023/05/10 08:45:55;;;;;;;16.58;11.40;;;;;;;13.88;100.00;101085.28;5072051;28;20028;-75
2023/05/10 08:48:24;;;;;;;19.42;11.60;;;;;;;14.05;100.00;101096.06;5072529;28;20438;-74
2023/05/10 08:50:54;;;;;;;16.40;11.75;;;;;;;14.21;100.00;101097.25;5071264;28;20012;-74
2023/05/10 08:53:20;;;;;;;18.30;12.80;;;;;;;14.62;100.00;101086.25;5072163;28;20564;-75
2023/05/10 08:55:46;;;;;;;19.15;12.98;;;;;;;15.10;100.00;101080.06;5072007;28;20096;-75
2023/05/10 08:58:11;;;;;;;14.35;12.05;;;;;;;15.45;100.00;101092.69;5071740;28;20051;-75
2023/05/10 09:00:37;;;;;;;14.95;10.73;;;;;;;15.61;100.00;101090.31;5072033;28;20115;-75
2023/05/10 09:03:04;;;;;;;19.75;9.85;;;;;;;15.54;100.00;101088.84;5072250;28;20024;-75
2023/05/10 09:05:29;;;;;;;16.20;8.80;;;;;;;15.40;100.00;101101.66;5058609;28;20523;-74
2023/05/10 09:07:55;;;;;;;11.18;6.80;;;;;;;15.33;100.00;101089.69;5070363;28;20088;-75
2023/05/10 09:10:21;;;;;;;10.07;6.55;;;;;;;15.38;100.00;101103.50;5071507;28;20456;-75
2023/05/10 09:12:48;;;;;;;8.25;6.90;;;;;;;15.26;100.00;101098.72;5071794;28;20071;-74
2023/05/10 09:15:16;;;;;;;8.68;6.55;;;;;;;15.17;100.00;101095.56;5072285;28;20062;-74
2023/05/10 09:17:42;;;;;;;11.27;7.60;;;;;;;15.18;100.00;101096.41;5071100;28;20044;-74
2023/05/10 09:20:07;;;;;;;9.85;6.93;;;;;;;15.27;100.00;101092.53;5072012;28;20025;-74
2023/05/10 09:22:34;;;;;;;10.40;7.13;;;;;;;15.44;100.00;101098.88;5071863;28;20083;-75
2023/05/10 09:25:13;;;;;;;12.40;7.63;;;;;;;15.55;100.00;101093.16;5070619;28;20041;-74
2023/05/10 09:27:40;;;;;;;10.77;7.55;;;;;;;15.55;100.00;101100.22;5071647;28;20112;-74
2023/05/10 09:30:07;;;;;;;10.77;7.68;;;;;;;15.50;100.00;101103.03;5071858;28;20016;-74
2023/05/10 09:32:40;;;;;;;10.20;8.40;;;;;;;15.59;100.00;101097.38;5073267;28;20464;-74
2023/05/10 09:35:10;;;;;;;10.75;8.18;;;;;;;15.81;100.00;101102.66;5075316;28;20099;-74
2023/05/10 09:37:36;;;;;;;10.02;7.50;;;;;;;15.98;100.00;101101.97;5075549;28;20032;-74
2023/05/10 09:40:04;;;;;;;13.70;8.70;;;;;;;16.22;100.00;101097.47;5074510;28;20025;-75
2023/05/10 09:42:30;;;;;;;10.63;8.32;;;;;;;16.25;100.00;101102.59;5075354;28;20032;-74
2023/05/10 09:45:00;;;;;;;12.57;8.65;;;;;;;15.98;100.00;101096.69;5074869;28;20025;-74
2023/05/10 09:47:26;;;;;;;9.32;7.85;;;;;;;15.54;100.00;101104.59;5074719;28;20021;-74
2023/05/10 09:49:55;;;;;;;11.95;8.30;;;;;;;15.14;100.00;101114.06;5074870;28;20017;-74
2023/05/10 09:52:20;;;;;;;14.45;9.10;;;;;;;14.85;100.00;101111.66;5074594;28;20028;-74
2023/05/10 09:54:53;;;;;;;10.15;8.43;;;;;;;14.62;100.00;101126.47;5075160;28;20020;-74
2023/05/10 09:57:23;;;;;;;14.10;10.23;;;;;;;14.43;100.00;101128.84;5074991;28;20025;-74
2023/05/10 09:59:54;;;;;;;10.32;9.32;;;;;;;14.34;100.00;101123.91;5074022;28;20029;-74
2023/05/10 10:02:19;;;;;;;10.73;9.15;;;;;;;14.39;100.00;101115.91;5075012;28;20028;-74
2023/05/10 10:04:44;;;;;;;11.68;9.27;;;;;;;14.53;100.00;101121.53;5074845;28;20033;-74
2023/05/10 10:07:10;;;;;;;13.10;9.70;;;;;;;14.69;100.00;101121.84;5074283;28;20029;-74
2023/05/10 10:09:35;;;;;;;13.38;9.20;;;;;;;14.82;100.00;101125.75;5074842;28;20035;-74
2023/05/10 10:12:01;;;;;;;12.63;8.15;;;;;;;14.90;100.00;101123.69;5074675;28;20024;-75
2023/05/10 10:14:27;;;;;;;10.23;7.68;;;;;;;14.82;100.00;101122.28;5073657;28;20111;-75
2023/05/10 10:16:52;;;;;;;7.53;6.68;;;;;;;14.72;100.00;101127.84;5074719;28;20112;-74
2023/05/10 10:19:20;;;;;;;8.85;6.93;;;;;;;14.71;100.00;101123.53;5074622;28;20034;-74
2023/05/10 10:21:45;;;;;;;8.07;6.82;;;;;;;14.94;100.00;101120.06;5073555;28;20460;-74
2023/05/10 10:24:10;;;;;;;10.13;7.32;;;;;;;15.30;100.00;101123.94;5074414;28;20147;-74
2023/05/10 10:26:42;;;;;;;10.57;7.85;;;;;;;15.79;100.00;101116.78;5074335;28;20023;-74
2023/05/10 10:29:39;;;;;;;9.18;7.75;;;;;;;16.26;100.00;101125.34;5073616;28;20472;-74
2023/05/10 10:32:33;;;;;;;11.93;8.35;;;;;;;16.68;100.00;101102.47;5074345;28;20031;-75
2023/05/10 10:34:58;;;;;;;10.32;7.97;;;;;;;17.04;100.00;101108.75;5073212;28;20035;-74
2023/05/10 10:37:42;;;;;;;11.68;7.85;;;;;;;17.35;100.00;101117.84;5074432;28;20456;-75
2023/05/10 10:40:33;;;;;;;10.25;7.47;;;;;;;17.23;100.00;101118.41;5074120;28;20460;-74
2023/05/10 10:43:26;;;;;;;11.65;7.70;;;;;;;16.51;100.00;101119.00;5062392;28;20559;-74
2023/05/10 10:46:11;;;;;;;10.15;7.53;;;;;;;15.99;100.00;101122.09;5073576;28;20016;-74
2023/05/10 10:48:36;;;;;;;9.80;7.72;;;;;;;15.59;100.00;101110.53;5073559;28;20043;-74
2023/05/10 10:51:02;;;;;;;9.50;7.47;;;;;;;15.38;100.00;101124.53;5073748;28;20403;-74
2023/05/10 10:53:28;;;;;;;10.35;7.93;;;;;;;15.17;100.00;101124.44;5073978;28;20028;-74
2023/05/10 10:56:09;;;;;;;9.15;7.60;;;;;;;15.10;100.00;101129.97;5072848;28;20154;-74
2023/05/10 10:58:35;;;;;;;9.43;8.48;;;;;;;15.22;100.00;101132.13;5073835;28;20085;-74
2023/05/10 11:01:12;;;;;;;11.85;9.00;;;;;;;15.54;100.00;101128.25;5073396;28;20036;-75
2023/05/10 11:03:37;;;;;;;10.32;8.70;;;;;;;15.89;100.00;101128.63;5073101;28;20088;-75